sensor_id;sensor_type;location;lat;lon;timestamp;P1;durP1;ratioP1;P2;durP2;ratioP2
25449;SDS011;13371;52.080;5.624;2023-08-31T00:02:12;4.13;;;2.60;;
25449;SDS011;13371;52.080;5.624;2023-08-31T00:04:38;3.80;;;2.53;;
25449;SDS011;13371;52.080;5.624;2023-08-31T00:07:04;4.45;;;2.88;;
25449;SDS011;13371;52.080;5.624;2023-08-31T00:09:30;5.00;;;2.70;;
25449;SDS011;13371;52.080;5.624;2023-08-31T00:11:55;4.70;;;2.28;;
25449;SDS011;13371;52.080;5.624;2023-08-31T00:14:24;4.03;;;2.60;;
25449;SDS011;13371;52.080;5.624;2023-08-31T00:16:51;6.30;;;2.85;;
25449;SDS011;13371;52.080;5.624;2023-08-31T00:19:17;10.35;;;3.30;;
25449;SDS011;13371;52.080;5.624;2023-08-31T00:21:42;4.13;;;2.70;;
25449;SDS011;13371;52.080;5.624;2023-08-31T00:24:08;4.85;;;2.75;;
25449;SDS011;13371;52.080;5.624;2023-08-31T00:26:35;5.70;;;2.70;;
25449;SDS011;13371;52.080;5.624;2023-08-31T00:29:10;9.98;;;3.33;;
25449;SDS011;13371;52.080;5.624;2023-08-31T00:31:36;6.03;;;3.03;;
25449;SDS011;13371;52.080;5.624;2023-08-31T00:34:02;6.40;;;3.20;;
25449;SDS011;13371;52.080;5.624;2023-08-31T00:36:29;6.88;;;3.05;;
25449;SDS011;13371;52.080;5.624;2023-08-31T00:38:56;5.22;;;3.22;;
25449;SDS011;13371;52.080;5.624;2023-08-31T00:41:22;8.00;;;3.00;;
25449;SDS011;13371;52.080;5.624;2023-08-31T00:43:48;8.07;;;3.63;;
25449;SDS011;13371;52.080;5.624;2023-08-31T00:46:13;7.07;;;3.30;;
25449;SDS011;13371;52.080;5.624;2023-08-31T00:48:40;5.32;;;3.42;;
25449;SDS011;13371;52.080;5.624;2023-08-31T00:51:06;7.03;;;3.50;;
25449;SDS011;13371;52.080;5.624;2023-08-31T00:53:32;5.38;;;3.22;;
25449;SDS011;13371;52.080;5.624;2023-08-31T00:56:00;5.38;;;3.55;;
25449;SDS011;13371;52.080;5.624;2023-08-31T00:58:25;7.28;;;3.80;;
25449;SDS011;13371;52.080;5.624;2023-08-31T01:03:42;7.70;;;4.30;;
25449;SDS011;13371;52.080;5.624;2023-08-31T01:09:02;7.60;;;4.28;;
25449;SDS011;13371;52.080;5.624;2023-08-31T01:14:33;11.75;;;5.10;;
25449;SDS011;13371;52.080;5.624;2023-08-31T01:17:04;10.02;;;5.18;;
25449;SDS011;13371;52.080;5.624;2023-08-31T01:19:40;9.43;;;5.97;;
25449;SDS011;13371;52.080;5.624;2023-08-31T01:22:09;12.50;;;5.13;;
25449;SDS011;13371;52.080;5.624;2023-08-31T01:27:08;12.68;;;6.18;;
25449;SDS011;13371;52.080;5.624;2023-08-31T01:29:34;9.70;;;5.40;;
25449;SDS011;13371;52.080;5.624;2023-08-31T01:32:00;12.02;;;5.95;;
25449;SDS011;13371;52.080;5.624;2023-08-31T01:34:29;10.77;;;6.20;;
25449;SDS011;13371;52.080;5.624;2023-08-31T01:36:56;11.88;;;6.75;;
25449;SDS011;13371;52.080;5.624;2023-08-31T01:39:33;10.27;;;6.60;;
25449;SDS011;13371;52.080;5.624;2023-08-31T01:42:15;10.80;;;7.00;;
25449;SDS011;13371;52.080;5.624;2023-08-31T01:44:41;14.20;;;7.30;;
25449;SDS011;13371;52.080;5.624;2023-08-31T01:47:09;13.32;;;7.03;;
25449;SDS011;13371;52.080;5.624;2023-08-31T01:49:39;12.43;;;7.40;;
25449;SDS011;13371;52.080;5.624;2023-08-31T01:52:05;15.98;;;8.18;;
25449;SDS011;13371;52.080;5.624;2023-08-31T01:54:32;11.93;;;7.45;;
25449;SDS011;13371;52.080;5.624;2023-08-31T01:56:58;13.25;;;7.97;;
25449;SDS011;13371;52.080;5.624;2023-08-31T01:59:23;14.32;;;8.80;;
25449;SDS011;13371;52.080;5.624;2023-08-31T02:01:49;14.90;;;9.05;;
25449;SDS011;13371;52.080;5.624;2023-08-31T02:04:15;12.68;;;8.57;;
25449;SDS011;13371;52.080;5.624;2023-08-31T02:06:40;17.70;;;9.23;;
25449;SDS011;13371;52.080;5.624;2023-08-31T02:09:06;14.55;;;9.60;;
25449;SDS011;13371;52.080;5.624;2023-08-31T02:11:32;13.75;;;8.68;;
25449;SDS011;13371;52.080;5.624;2023-08-31T02:14:01;13.85;;;9.15;;
25449;SDS011;13371;52.080;5.624;2023-08-31T02:16:27;15.02;;;9.48;;
25449;SDS011;13371;52.080;5.624;2023-08-31T02:18:53;14.43;;;9.90;;
25449;SDS011;13371;52.080;5.624;2023-08-31T02:21:18;16.67;;;10.55;;
25449;SDS011;13371;52.080;5.624;2023-08-31T02:23:45;17.70;;;11.77;;
25449;SDS011;13371;52.080;5.624;2023-08-31T02:26:11;21.13;;;12.50;;
25449;SDS011;13371;52.080;5.624;2023-08-31T02:28:36;21.58;;;12.77;;
25449;SDS011;13371;52.080;5.624;2023-08-31T02:31:02;17.38;;;12.35;;
25449;SDS011;13371;52.080;5.624;2023-08-31T02:33:28;19.38;;;11.70;;
25449;SDS011;13371;52.080;5.624;2023-08-31T02:35:54;16.23;;;11.02;;
25449;SDS011;13371;52.080;5.624;2023-08-31T02:38:20;17.65;;;11.48;;
25449;SDS011;13371;52.080;5.624;2023-08-31T02:40:45;20.10;;;11.23;;
25449;SDS011;13371;52.080;5.624;2023-08-31T02:43:12;16.80;;;10.50;;
25449;SDS011;13371;52.080;5.624;2023-08-31T02:45:38;15.23;;;10.75;;
25449;SDS011;13371;52.080;5.624;2023-08-31T02:48:04;16.05;;;11.40;;
25449;SDS011;13371;52.080;5.624;2023-08-31T02:50:32;16.98;;;10.48;;
25449;SDS011;13371;52.080;5.624;2023-08-31T02:52:59;14.75;;;10.50;;
25449;SDS011;13371;52.080;5.624;2023-08-31T02:55:24;16.90;;;11.05;;
25449;SDS011;13371;52.080;5.624;2023-08-31T02:57:50;15.18;;;9.98;;
25449;SDS011;13371;52.080;5.624;2023-08-31T03:00:16;20.42;;;10.45;;
25449;SDS011;13371;52.080;5.624;2023-08-31T03:02:41;16.55;;;10.07;;
25449;SDS011;13371;52.080;5.624;2023-08-31T03:05:08;16.40;;;9.40;;
25449;SDS011;13371;52.080;5.624;2023-08-31T03:07:34;12.70;;;9.10;;
25449;SDS011;13371;52.080;5.624;2023-08-31T03:10:00;11.90;;;8.02;;
25449;SDS011;13371;52.080;5.624;2023-08-31T03:12:25;14.05;;;7.63;;
25449;SDS011;13371;52.080;5.624;2023-08-31T03:14:51;11.88;;;7.25;;
25449;SDS011;13371;52.080;5.624;2023-08-31T03:17:17;10.70;;;7.40;;
25449;SDS011;13371;52.080;5.624;2023-08-31T03:19:42;10.95;;;7.03;;
25449;SDS011;13371;52.080;5.624;2023-08-31T03:22:08;9.35;;;7.13;;
25449;SDS011;13371;52.080;5.624;2023-08-31T03:24:33;17.33;;;8.15;;
25449;SDS011;13371;52.080;5.624;2023-08-31T03:26:59;11.70;;;7.50;;
25449;SDS011;13371;52.080;5.624;2023-08-31T03:29:24;12.80;;;7.68;;
25449;SDS011;13371;52.080;5.624;2023-08-31T03:31:50;13.52;;;7.45;;
25449;SDS011;13371;52.080;5.624;2023-08-31T03:34:16;13.02;;;7.53;;
25449;SDS011;13371;52.080;5.624;2023-08-31T03:36:42;11.45;;;7.82;;
25449;SDS011;13371;52.080;5.624;2023-08-31T03:39:08;10.57;;;7.22;;
25449;SDS011;13371;52.080;5.624;2023-08-31T03:41:34;10.65;;;6.82;;
25449;SDS011;13371;52.080;5.624;2023-08-31T03:44:00;10.60;;;6.97;;
25449;SDS011;13371;52.080;5.624;2023-08-31T03:46:26;13.15;;;7.75;;
25449;SDS011;13371;52.080;5.624;2023-08-31T03:48:52;14.13;;;7.60;;
25449;SDS011;13371;52.080;5.624;2023-08-31T03:51:17;12.02;;;7.32;;
25449;SDS011;13371;52.080;5.624;2023-08-31T03:53:43;13.00;;;7.78;;
25449;SDS011;13371;52.080;5.624;2023-08-31T03:56:09;13.55;;;7.93;;
25449;SDS011;13371;52.080;5.624;2023-08-31T03:58:35;14.02;;;8.15;;
25449;SDS011;13371;52.080;5.624;2023-08-31T04:01:01;16.30;;;7.63;;
25449;SDS011;13371;52.080;5.624;2023-08-31T04:03:26;14.15;;;9.27;;
25449;SDS011;13371;52.080;5.624;2023-08-31T04:05:55;12.95;;;8.68;;
25449;SDS011;13371;52.080;5.624;2023-08-31T04:08:21;12.55;;;7.50;;
25449;SDS011;13371;52.080;5.624;2023-08-31T04:10:47;11.73;;;7.78;;
25449;SDS011;13371;52.080;5.624;2023-08-31T04:13:12;11.15;;;7.57;;
25449;SDS011;13371;52.080;5.624;2023-08-31T04:15:38;14.85;;;7.10;;
25449;SDS011;13371;52.080;5.624;2023-08-31T04:18:03;14.02;;;7.13;;
25449;SDS011;13371;52.080;5.624;2023-08-31T04:20:30;11.30;;;7.00;;
25449;SDS011;13371;52.080;5.624;2023-08-31T04:22:55;10.80;;;6.15;;
25449;SDS011;13371;52.080;5.624;2023-08-31T04:25:21;7.53;;;6.00;;
25449;SDS011;13371;52.080;5.624;2023-08-31T04:27:46;13.45;;;6.57;;
25449;SDS011;13371;52.080;5.624;2023-08-31T04:30:12;10.35;;;6.88;;
25449;SDS011;13371;52.080;5.624;2023-08-31T04:32:38;11.63;;;6.97;;
25449;SDS011;13371;52.080;5.624;2023-08-31T04:35:04;14.45;;;7.05;;
25449;SDS011;13371;52.080;5.624;2023-08-31T04:37:33;13.45;;;6.93;;
25449;SDS011;13371;52.080;5.624;2023-08-31T04:39:58;9.63;;;5.97;;
25449;SDS011;13371;52.080;5.624;2023-08-31T04:42:24;12.13;;;6.30;;
25449;SDS011;13371;52.080;5.624;2023-08-31T04:44:50;9.05;;;5.78;;
25449;SDS011;13371;52.080;5.624;2023-08-31T04:47:15;10.65;;;6.90;;
25449;SDS011;13371;52.080;5.624;2023-08-31T04:49:41;10.23;;;6.38;;
25449;SDS011;13371;52.080;5.624;2023-08-31T04:52:07;11.60;;;6.47;;
25449;SDS011;13371;52.080;5.624;2023-08-31T04:54:33;11.55;;;7.25;;
25449;SDS011;13371;52.080;5.624;2023-08-31T04:56:59;11.10;;;7.28;;
25449;SDS011;13371;52.080;5.624;2023-08-31T04:59:24;12.45;;;6.93;;
25449;SDS011;13371;52.080;5.624;2023-08-31T05:01:50;14.02;;;8.05;;
25449;SDS011;13371;52.080;5.624;2023-08-31T05:04:15;15.57;;;8.82;;
25449;SDS011;13371;52.080;5.624;2023-08-31T05:06:41;13.88;;;8.90;;
25449;SDS011;13371;52.080;5.624;2023-08-31T05:09:06;19.50;;;10.50;;
25449;SDS011;13371;52.080;5.624;2023-08-31T05:11:33;19.25;;;12.30;;
25449;SDS011;13371;52.080;5.624;2023-08-31T05:13:58;18.48;;;11.77;;
25449;SDS011;13371;52.080;5.624;2023-08-31T05:16:24;21.52;;;11.93;;
25449;SDS011;13371;52.080;5.624;2023-08-31T05:18:49;19.45;;;13.15;;
25449;SDS011;13371;52.080;5.624;2023-08-31T05:21:15;21.27;;;13.38;;
25449;SDS011;13371;52.080;5.624;2023-08-31T05:23:41;22.33;;;13.77;;
25449;SDS011;13371;52.080;5.624;2023-08-31T05:26:06;23.20;;;12.93;;
25449;SDS011;13371;52.080;5.624;2023-08-31T05:28:32;15.68;;;10.50;;
25449;SDS011;13371;52.080;5.624;2023-08-31T05:31:01;17.45;;;9.77;;
25449;SDS011;13371;52.080;5.624;2023-08-31T05:33:30;17.33;;;10.70;;
25449;SDS011;13371;52.080;5.624;2023-08-31T05:35:59;14.90;;;10.75;;
25449;SDS011;13371;52.080;5.624;2023-08-31T05:38:25;17.60;;;10.95;;
25449;SDS011;13371;52.080;5.624;2023-08-31T05:40:51;21.85;;;13.50;;
25449;SDS011;13371;52.080;5.624;2023-08-31T05:43:20;21.83;;;14.95;;
25449;SDS011;13371;52.080;5.624;2023-08-31T05:45:45;22.45;;;14.95;;
25449;SDS011;13371;52.080;5.624;2023-08-31T05:48:11;26.60;;;15.80;;
25449;SDS011;13371;52.080;5.624;2023-08-31T05:50:37;22.17;;;15.00;;
25449;SDS011;13371;52.080;5.624;2023-08-31T05:53:03;23.17;;;15.25;;
25449;SDS011;13371;52.080;5.624;2023-08-31T05:55:29;23.75;;;16.20;;
25449;SDS011;13371;52.080;5.624;2023-08-31T05:57:57;24.70;;;15.73;;
25449;SDS011;13371;52.080;5.624;2023-08-31T06:00:23;24.85;;;16.88;;
25449;SDS011;13371;52.080;5.624;2023-08-31T06:02:49;27.27;;;16.95;;
25449;SDS011;13371;52.080;5.624;2023-08-31T06:05:14;23.85;;;16.75;;
25449;SDS011;13371;52.080;5.624;2023-08-31T06:07:43;25.63;;;16.90;;
25449;SDS011;13371;52.080;5.624;2023-08-31T06:10:09;23.45;;;15.98;;
25449;SDS011;13371;52.080;5.624;2023-08-31T06:12:35;21.95;;;15.43;;
25449;SDS011;13371;52.080;5.624;2023-08-31T06:15:01;22.27;;;15.80;;
25449;SDS011;13371;52.080;5.624;2023-08-31T06:17:28;21.83;;;14.90;;
25449;SDS011;13371;52.080;5.624;2023-08-31T06:19:53;22.80;;;14.93;;
25449;SDS011;13371;52.080;5.624;2023-08-31T06:22:19;21.95;;;16.00;;
25449;SDS011;13371;52.080;5.624;2023-08-31T06:24:47;23.15;;;15.60;;
25449;SDS011;13371;52.080;5.624;2023-08-31T06:27:13;19.33;;;15.07;;
25449;SDS011;13371;52.080;5.624;2023-08-31T06:29:40;24.33;;;15.20;;
25449;SDS011;13371;52.080;5.624;2023-08-31T06:32:06;22.45;;;13.68;;
25449;SDS011;13371;52.080;5.624;2023-08-31T06:34:32;18.85;;;13.05;;
25449;SDS011;13371;52.080;5.624;2023-08-31T06:36:57;17.92;;;13.07;;
25449;SDS011;13371;52.080;5.624;2023-08-31T06:39:23;18.60;;;13.20;;
25449;SDS011;13371;52.080;5.624;2023-08-31T06:41:49;22.10;;;13.05;;
25449;SDS011;13371;52.080;5.624;2023-08-31T06:44:15;21.67;;;14.18;;
25449;SDS011;13371;52.080;5.624;2023-08-31T06:46:41;19.20;;;13.93;;
25449;SDS011;13371;52.080;5.624;2023-08-31T06:49:07;24.48;;;15.05;;
25449;SDS011;13371;52.080;5.624;2023-08-31T06:51:34;23.40;;;15.15;;
25449;SDS011;13371;52.080;5.624;2023-08-31T06:53:59;23.58;;;16.40;;
25449;SDS011;13371;52.080;5.624;2023-08-31T06:56:30;23.70;;;16.05;;
25449;SDS011;13371;52.080;5.624;2023-08-31T06:58:59;24.13;;;16.48;;
25449;SDS011;13371;52.080;5.624;2023-08-31T07:01:25;28.52;;;17.02;;
25449;SDS011;13371;52.080;5.624;2023-08-31T07:03:52;23.33;;;15.85;;
25449;SDS011;13371;52.080;5.624;2023-08-31T07:06:17;25.15;;;17.20;;
25449;SDS011;13371;52.080;5.624;2023-08-31T07:08:43;23.67;;;17.02;;
25449;SDS011;13371;52.080;5.624;2023-08-31T07:11:10;24.38;;;18.27;;
25449;SDS011;13371;52.080;5.624;2023-08-31T07:13:36;25.42;;;18.45;;
25449;SDS011;13371;52.080;5.624;2023-08-31T07:16:02;22.70;;;16.52;;
25449;SDS011;13371;52.080;5.624;2023-08-31T07:18:27;18.02;;;14.57;;
25449;SDS011;13371;52.080;5.624;2023-08-31T07:20:53;23.98;;;14.32;;
25449;SDS011;13371;52.080;5.624;2023-08-31T07:23:19;22.45;;;12.85;;
25449;SDS011;13371;52.080;5.624;2023-08-31T07:25:44;17.85;;;12.50;;
25449;SDS011;13371;52.080;5.624;2023-08-31T07:28:10;16.27;;;10.05;;
25449;SDS011;13371;52.080;5.624;2023-08-31T07:30:36;14.68;;;11.20;;
25449;SDS011;13371;52.080;5.624;2023-08-31T07:33:02;16.80;;;10.18;;
25449;SDS011;13371;52.080;5.624;2023-08-31T07:35:29;16.27;;;9.65;;
25449;SDS011;13371;52.080;5.624;2023-08-31T07:37:55;13.68;;;8.80;;
25449;SDS011;13371;52.080;5.624;2023-08-31T07:40:20;15.18;;;9.88;;
25449;SDS011;13371;52.080;5.624;2023-08-31T07:42:46;12.77;;;9.60;;
25449;SDS011;13371;52.080;5.624;2023-08-31T07:45:12;13.43;;;8.77;;
25449;SDS011;13371;52.080;5.624;2023-08-31T07:47:37;16.10;;;9.95;;
25449;SDS011;13371;52.080;5.624;2023-08-31T07:50:03;13.82;;;9.60;;
25449;SDS011;13371;52.080;5.624;2023-08-31T07:52:29;18.10;;;9.75;;
25449;SDS011;13371;52.080;5.624;2023-08-31T07:54:55;16.05;;;9.30;;
25449;SDS011;13371;52.080;5.624;2023-08-31T07:57:21;16.08;;;8.88;;
25449;SDS011;13371;52.080;5.624;2023-08-31T07:59:47;14.60;;;9.00;;
25449;SDS011;13371;52.080;5.624;2023-08-31T08:02:12;16.40;;;9.48;;
25449;SDS011;13371;52.080;5.624;2023-08-31T08:04:38;14.07;;;8.77;;
25449;SDS011;13371;52.080;5.624;2023-08-31T08:07:04;14.18;;;9.93;;
25449;SDS011;13371;52.080;5.624;2023-08-31T08:09:29;16.95;;;9.32;;
25449;SDS011;13371;52.080;5.624;2023-08-31T08:11:55;14.93;;;9.00;;
25449;SDS011;13371;52.080;5.624;2023-08-31T08:14:21;17.02;;;9.48;;
25449;SDS011;13371;52.080;5.624;2023-08-31T08:16:46;12.35;;;9.30;;
25449;SDS011;13371;52.080;5.624;2023-08-31T08:19:12;15.60;;;9.35;;
25449;SDS011;13371;52.080;5.624;2023-08-31T08:21:38;14.07;;;8.55;;
25449;SDS011;13371;52.080;5.624;2023-08-31T08:24:03;11.25;;;8.07;;
25449;SDS011;13371;52.080;5.624;2023-08-31T08:26:29;13.73;;;8.63;;
25449;SDS011;13371;52.080;5.624;2023-08-31T08:28:55;12.27;;;7.90;;
25449;SDS011;13371;52.080;5.624;2023-08-31T08:31:20;11.32;;;7.97;;
25449;SDS011;13371;52.080;5.624;2023-08-31T08:33:46;11.02;;;7.97;;
25449;SDS011;13371;52.080;5.624;2023-08-31T08:36:11;13.48;;;9.65;;
25449;SDS011;13371;52.080;5.624;2023-08-31T08:38:37;14.40;;;9.63;;
25449;SDS011;13371;52.080;5.624;2023-08-31T08:41:06;17.77;;;9.85;;
25449;SDS011;13371;52.080;5.624;2023-08-31T08:43:32;14.90;;;10.23;;
25449;SDS011;13371;52.080;5.624;2023-08-31T08:46:00;14.52;;;10.07;;
25449;SDS011;13371;52.080;5.624;2023-08-31T08:48:30;17.92;;;10.85;;
25449;SDS011;13371;52.080;5.624;2023-08-31T08:50:56;16.13;;;10.00;;
25449;SDS011;13371;52.080;5.624;2023-08-31T08:53:22;13.45;;;9.20;;
25449;SDS011;13371;52.080;5.624;2023-08-31T08:55:48;17.27;;;10.70;;
25449;SDS011;13371;52.080;5.624;2023-08-31T08:58:13;15.32;;;10.48;;
25449;SDS011;13371;52.080;5.624;2023-08-31T09:00:39;16.30;;;10.32;;
25449;SDS011;13371;52.080;5.624;2023-08-31T09:03:06;18.52;;;10.88;;
25449;SDS011;13371;52.080;5.624;2023-08-31T09:05:32;13.63;;;10.02;;
25449;SDS011;13371;52.080;5.624;2023-08-31T09:08:07;12.65;;;10.10;;
25449;SDS011;13371;52.080;5.624;2023-08-31T09:10:41;17.25;;;11.25;;
25449;SDS011;13371;52.080;5.624;2023-08-31T09:13:11;24.45;;;12.27;;
25449;SDS011;13371;52.080;5.624;2023-08-31T09:15:39;16.25;;;11.52;;
25449;SDS011;13371;52.080;5.624;2023-08-31T09:18:31;17.65;;;11.68;;
25449;SDS011;13371;52.080;5.624;2023-08-31T09:20:57;15.30;;;8.48;;
25449;SDS011;13371;52.080;5.624;2023-08-31T09:23:23;13.18;;;6.82;;
25449;SDS011;13371;52.080;5.624;2023-08-31T09:25:50;12.45;;;6.03;;
25449;SDS011;13371;52.080;5.624;2023-08-31T09:28:19;7.95;;;5.50;;
25449;SDS011;13371;52.080;5.624;2023-08-31T09:30:49;11.18;;;4.82;;
25449;SDS011;13371;52.080;5.624;2023-08-31T09:33:16;10.43;;;4.70;;
25449;SDS011;13371;52.080;5.624;2023-08-31T09:35:49;7.78;;;4.30;;
25449;SDS011;13371;52.080;5.624;2023-08-31T09:38:16;8.02;;;4.38;;
25449;SDS011;13371;52.080;5.624;2023-08-31T09:40:42;8.13;;;4.00;;
25449;SDS011;13371;52.080;5.624;2023-08-31T09:43:07;8.98;;;4.22;;
25449;SDS011;13371;52.080;5.624;2023-08-31T09:45:33;9.10;;;4.13;;
25449;SDS011;13371;52.080;5.624;2023-08-31T09:48:00;9.38;;;3.67;;
25449;SDS011;13371;52.080;5.624;2023-08-31T09:50:32;5.20;;;3.20;;
25449;SDS011;13371;52.080;5.624;2023-08-31T09:53:00;7.70;;;3.42;;
25449;SDS011;13371;52.080;5.624;2023-08-31T09:55:29;10.35;;;3.72;;
25449;SDS011;13371;52.080;5.624;2023-08-31T09:57:56;6.72;;;3.28;;
25449;SDS011;13371;52.080;5.624;2023-08-31T10:00:26;7.50;;;3.10;;
25449;SDS011;13371;52.080;5.624;2023-08-31T10:02:54;4.53;;;3.42;;
25449;SDS011;13371;52.080;5.624;2023-08-31T10:05:22;6.25;;;2.80;;
25449;SDS011;13371;52.080;5.624;2023-08-31T10:07:48;9.32;;;3.35;;
25449;SDS011;13371;52.080;5.624;2023-08-31T10:10:15;5.00;;;2.95;;
25449;SDS011;13371;52.080;5.624;2023-08-31T10:12:42;8.13;;;3.53;;
25449;SDS011;13371;52.080;5.624;2023-08-31T10:15:09;2.80;;;1.73;;
25449;SDS011;13371;52.080;5.624;2023-08-31T10:17:35;7.68;;;2.70;;
25449;SDS011;13371;52.080;5.624;2023-08-31T10:20:01;7.07;;;2.10;;
25449;SDS011;13371;52.080;5.624;2023-08-31T10:22:28;6.90;;;2.20;;
25449;SDS011;13371;52.080;5.624;2023-08-31T10:24:58;2.58;;;1.70;;
25449;SDS011;13371;52.080;5.624;2023-08-31T10:35:41;3.47;;;1.05;;
25449;SDS011;13371;52.080;5.624;2023-08-31T10:42:20;3.55;;;0.93;;
25449;SDS011;13371;52.080;5.624;2023-08-31T10:44:48;5.93;;;0.90;;
25449;SDS011;13371;52.080;5.624;2023-08-31T10:47:15;7.10;;;1.17;;
25449;SDS011;13371;52.080;5.624;2023-08-31T10:49:49;3.40;;;0.95;;
25449;SDS011;13371;52.080;5.624;2023-08-31T10:52:17;5.20;;;1.40;;
25449;SDS011;13371;52.080;5.624;2023-08-31T10:54:43;4.63;;;0.88;;
25449;SDS011;13371;52.080;5.624;2023-08-31T10:57:11;4.70;;;0.70;;
25449;SDS011;13371;52.080;5.624;2023-08-31T11:07:32;2.47;;;0.30;;
25449;SDS011;13371;52.080;5.624;2023-08-31T11:10:09;3.53;;;1.05;;
25449;SDS011;13371;52.080;5.624;2023-08-31T11:12:35;2.50;;;0.93;;
25449;SDS011;13371;52.080;5.624;2023-08-31T11:15:01;1.67;;;0.60;;
25449;SDS011;13371;52.080;5.624;2023-08-31T11:17:28;2.25;;;0.88;;
25449;SDS011;13371;52.080;5.624;2023-08-31T11:19:56;4.35;;;1.00;;
25449;SDS011;13371;52.080;5.624;2023-08-31T11:22:21;3.38;;;0.88;;
25449;SDS011;13371;52.080;5.624;2023-08-31T11:24:59;3.60;;;0.90;;
25449;SDS011;13371;52.080;5.624;2023-08-31T11:27:33;2.85;;;0.57;;
25449;SDS011;13371;52.080;5.624;2023-08-31T11:33:50;1.27;;;0.80;;
25449;SDS011;13371;52.080;5.624;2023-08-31T11:36:37;1.88;;;0.73;;
25449;SDS011;13371;52.080;5.624;2023-08-31T11:42:51;3.17;;;0.68;;
25449;SDS011;13371;52.080;5.624;2023-08-31T11:45:44;2.13;;;0.88;;
25449;SDS011;13371;52.080;5.624;2023-08-31T11:48:18;3.47;;;0.68;;
25449;SDS011;13371;52.080;5.624;2023-08-31T11:50:50;2.92;;;0.70;;
25449;SDS011;13371;52.080;5.624;2023-08-31T11:53:36;1.73;;;0.60;;
25449;SDS011;13371;52.080;5.624;2023-08-31T11:56:05;1.20;;;0.52;;
25449;SDS011;13371;52.080;5.624;2023-08-31T11:58:31;2.75;;;0.60;;
25449;SDS011;13371;52.080;5.624;2023-08-31T12:00:57;1.33;;;0.73;;
25449;SDS011;13371;52.080;5.624;2023-08-31T12:03:23;2.20;;;0.63;;
25449;SDS011;13371;52.080;5.624;2023-08-31T12:05:51;1.80;;;0.60;;
25449;SDS011;13371;52.080;5.624;2023-08-31T12:08:26;2.55;;;0.80;;
25449;SDS011;13371;52.080;5.624;2023-08-31T12:10:52;1.70;;;0.63;;
25449;SDS011;13371;52.080;5.624;2023-08-31T12:13:18;1.42;;;0.50;;
25449;SDS011;13371;52.080;5.624;2023-08-31T12:15:44;1.88;;;0.63;;
25449;SDS011;13371;52.080;5.624;2023-08-31T12:18:13;2.38;;;0.80;;
25449;SDS011;13371;52.080;5.624;2023-08-31T12:20:46;2.33;;;0.80;;
25449;SDS011;13371;52.080;5.624;2023-08-31T12:23:12;3.05;;;0.82;;
25449;SDS011;13371;52.080;5.624;2023-08-31T12:25:45;1.98;;;0.60;;
25449;SDS011;13371;52.080;5.624;2023-08-31T12:28:11;5.13;;;1.00;;
25449;SDS011;13371;52.080;5.624;2023-08-31T12:30:37;2.25;;;0.60;;
25449;SDS011;13371;52.080;5.624;2023-08-31T12:33:03;2.50;;;0.55;;
25449;SDS011;13371;52.080;5.624;2023-08-31T12:35:28;3.47;;;0.70;;
25449;SDS011;13371;52.080;5.624;2023-08-31T12:37:55;2.00;;;0.70;;
25449;SDS011;13371;52.080;5.624;2023-08-31T12:40:22;0.82;;;0.50;;
25449;SDS011;13371;52.080;5.624;2023-08-31T12:42:48;2.05;;;0.70;;
25449;SDS011;13371;52.080;5.624;2023-08-31T12:45:13;3.17;;;0.57;;
25449;SDS011;13371;52.080;5.624;2023-08-31T12:47:39;2.45;;;0.65;;
25449;SDS011;13371;52.080;5.624;2023-08-31T12:50:05;2.80;;;0.70;;
25449;SDS011;13371;52.080;5.624;2023-08-31T12:52:31;2.05;;;0.80;;
25449;SDS011;13371;52.080;5.624;2023-08-31T12:54:57;2.30;;;0.73;;
25449;SDS011;13371;52.080;5.624;2023-08-31T12:57:22;4.28;;;0.60;;
25449;SDS011;13371;52.080;5.624;2023-08-31T12:59:48;1.45;;;0.85;;
25449;SDS011;13371;52.080;5.624;2023-08-31T13:02:13;2.60;;;0.70;;
25449;SDS011;13371;52.080;5.624;2023-08-31T13:04:39;1.95;;;0.60;;
25449;SDS011;13371;52.080;5.624;2023-08-31T13:07:05;3.33;;;0.50;;
25449;SDS011;13371;52.080;5.624;2023-08-31T13:09:30;1.83;;;0.65;;
25449;SDS011;13371;52.080;5.624;2023-08-31T13:11:56;2.75;;;0.98;;
25449;SDS011;13371;52.080;5.624;2023-08-31T13:14:22;2.38;;;0.63;;
25449;SDS011;13371;52.080;5.624;2023-08-31T13:16:47;4.43;;;1.30;;
25449;SDS011;13371;52.080;5.624;2023-08-31T13:19:13;2.88;;;0.70;;
25449;SDS011;13371;52.080;5.624;2023-08-31T13:21:39;3.95;;;0.70;;
25449;SDS011;13371;52.080;5.624;2023-08-31T13:24:04;2.65;;;0.70;;
25449;SDS011;13371;52.080;5.624;2023-08-31T13:26:30;1.58;;;0.60;;
25449;SDS011;13371;52.080;5.624;2023-08-31T13:28:55;3.53;;;0.90;;
25449;SDS011;13371;52.080;5.624;2023-08-31T13:31:21;1.45;;;0.60;;
25449;SDS011;13371;52.080;5.624;2023-08-31T13:33:47;1.92;;;1.00;;
25449;SDS011;13371;52.080;5.624;2023-08-31T13:36:12;3.65;;;0.80;;
25449;SDS011;13371;52.080;5.624;2023-08-31T13:38:38;2.65;;;0.85;;
25449;SDS011;13371;52.080;5.624;2023-08-31T13:41:03;2.58;;;0.90;;
25449;SDS011;13371;52.080;5.624;2023-08-31T13:43:29;4.90;;;0.95;;
25449;SDS011;13371;52.080;5.624;2023-08-31T13:45:55;3.13;;;1.05;;
25449;SDS011;13371;52.080;5.624;2023-08-31T13:48:20;5.18;;;1.20;;
25449;SDS011;13371;52.080;5.624;2023-08-31T13:50:47;1.65;;;0.80;;
25449;SDS011;13371;52.080;5.624;2023-08-31T13:53:13;2.15;;;0.57;;
25449;SDS011;13371;52.080;5.624;2023-08-31T13:55:39;4.20;;;0.80;;
25449;SDS011;13371;52.080;5.624;2023-08-31T13:58:05;2.65;;;0.95;;
25449;SDS011;13371;52.080;5.624;2023-08-31T14:00:35;2.47;;;0.80;;
25449;SDS011;13371;52.080;5.624;2023-08-31T14:03:01;4.97;;;1.25;;
25449;SDS011;13371;52.080;5.624;2023-08-31T14:05:29;2.33;;;0.75;;
25449;SDS011;13371;52.080;5.624;2023-08-31T14:07:56;3.58;;;0.93;;
25449;SDS011;13371;52.080;5.624;2023-08-31T14:10:23;2.55;;;0.73;;
25449;SDS011;13371;52.080;5.624;2023-08-31T14:12:49;3.78;;;1.05;;
25449;SDS011;13371;52.080;5.624;2023-08-31T14:15:14;3.65;;;1.00;;
25449;SDS011;13371;52.080;5.624;2023-08-31T14:17:41;3.03;;;0.73;;
25449;SDS011;13371;52.080;5.624;2023-08-31T14:20:07;2.25;;;1.05;;
25449;SDS011;13371;52.080;5.624;2023-08-31T14:22:34;3.05;;;1.00;;
25449;SDS011;13371;52.080;5.624;2023-08-31T14:25:00;4.00;;;1.05;;
25449;SDS011;13371;52.080;5.624;2023-08-31T14:27:26;4.25;;;0.90;;
25449;SDS011;13371;52.080;5.624;2023-08-31T14:29:52;4.28;;;0.90;;
25449;SDS011;13371;52.080;5.624;2023-08-31T14:32:18;3.40;;;1.00;;
25449;SDS011;13371;52.080;5.624;2023-08-31T14:34:44;2.88;;;0.80;;
25449;SDS011;13371;52.080;5.624;2023-08-31T14:37:09;3.65;;;1.00;;
25449;SDS011;13371;52.080;5.624;2023-08-31T14:39:35;3.85;;;0.82;;
25449;SDS011;13371;52.080;5.624;2023-08-31T14:42:01;2.05;;;0.98;;
25449;SDS011;13371;52.080;5.624;2023-08-31T14:44:26;2.92;;;1.10;;
25449;SDS011;13371;52.080;5.624;2023-08-31T14:46:52;4.57;;;1.17;;
25449;SDS011;13371;52.080;5.624;2023-08-31T14:49:18;2.78;;;0.80;;
25449;SDS011;13371;52.080;5.624;2023-08-31T14:51:43;5.05;;;1.20;;
25449;SDS011;13371;52.080;5.624;2023-08-31T14:54:09;3.30;;;1.00;;
25449;SDS011;13371;52.080;5.624;2023-08-31T14:56:35;2.72;;;0.80;;
25449;SDS011;13371;52.080;5.624;2023-08-31T14:59:00;3.30;;;1.33;;
25449;SDS011;13371;52.080;5.624;2023-08-31T15:01:26;3.00;;;1.13;;
25449;SDS011;13371;52.080;5.624;2023-08-31T15:03:53;5.15;;;1.30;;
25449;SDS011;13371;52.080;5.624;2023-08-31T15:06:19;3.45;;;0.90;;
25449;SDS011;13371;52.080;5.624;2023-08-31T15:08:45;3.65;;;0.93;;
25449;SDS011;13371;52.080;5.624;2023-08-31T15:11:10;2.30;;;0.85;;
25449;SDS011;13371;52.080;5.624;2023-08-31T15:13:36;2.72;;;0.73;;
25449;SDS011;13371;52.080;5.624;2023-08-31T15:16:02;3.15;;;0.90;;